Time;durP1;ratioP1;P1;durP2;ratioP2;P2;SDS_P1;SDS_P2;PMS_P1;PMS_P2;Temp;Humidity;BMP_temperature;BMP_pressure;BME280_temperature;BME280_humidity;BME280_pressure;Samples;Min_cycle;Max_cycle;Signal;HPM_P1;HPM_P2
2022/09/03 00:00:15;;;;;;;;;;;;;;;-142.75;100.00;76196.31;5051979;28;20007;-68
2022/09/03 00:02:45;;;;;;;;;;;;;;;-142.75;100.00;76200.25;5066778;28;19916;-69
2022/09/03 00:05:16;;;;;;;;;;;;;;;-142.75;100.00;76210.06;5071929;28;20382;-69
2022/09/03 00:07:47;;;;;;;;;;;;;;;-142.75;100.00;76204.16;5071532;28;19916;-68
2022/09/03 00:10:21;;;;;;;;;;;;;;;-142.75;100.00;76204.16;5071895;28;20337;-69
2022/09/03 00:12:48;;;;;;;;;;;;;;;-142.75;100.00;76198.28;5071858;28;20011;-69
2022/09/03 00:15:15;;;;;;;;;;;;;;;-142.75;100.00;76198.28;5071856;28;19913;-68
2022/09/03 00:17:44;;;;;;;;;;;;;;;-142.75;100.00;76206.13;5071562;28;19934;-68
2022/09/03 00:20:14;;;;;;;;;;;;;;;-142.75;100.00;76208.09;5072637;28;20467;-69
2022/09/03 00:22:41;;;;;;;;;;;;;;;-142.75;100.00;76212.03;5075394;28;20378;-68
2022/09/03 00:25:13;;;;;;;;;;;;;;;-142.75;100.00;76208.09;5075606;28;19920;-69
2022/09/03 00:27:38;;;;;;;;;;;;;;;-142.75;100.00;76208.09;5075361;28;19912;-68
2022/09/03 00:30:07;;;;;;;;;;;;;;;-142.75;100.00;76215.97;5075605;28;19995;-68
2022/09/03 00:32:32;;;;;;;;;;;;;;;-142.75;100.00;76223.84;5075400;28;19920;-69
2022/09/03 00:35:00;;;;;;;;;;;;;;;-142.75;100.00;76215.97;5075297;28;19913;-68
2022/09/03 00:37:28;;;;;;;;;;;;;;;-142.75;100.00;76215.97;5075071;28;19912;-68
2022/09/03 00:39:54;;;;;;;;;;;;;;;-142.75;100.00;76231.72;5075347;28;20374;-67
2022/09/03 00:42:37;;;;;;;;;;;;;;;-142.75;100.00;76227.78;5075115;28;19927;-68
2022/09/03 00:45:09;;;;;;;;;;;;;;;-142.75;100.00;76235.66;5075144;28;19913;-67
2022/09/03 00:47:54;;;;;;;;;;;;;;;-142.75;100.00;76235.66;5074916;28;19919;-68
2022/09/03 00:50:39;;;;;;;;;;;;;;;-142.75;100.00;76245.50;5069467;28;20054;-70
2022/09/03 00:53:10;;;;;;;;;;;;;;;-142.75;100.00;76239.59;5063277;28;19913;-67
2022/09/03 00:55:47;;;;;;;;;;;;;;;-142.75;100.00;76239.59;5054940;28;20011;-68
2022/09/03 00:58:22;;;;;;;;;;;;;;;-142.75;100.00;76245.50;5054766;28;19913;-69
2022/09/03 01:00:49;;;;;;;;;;;;;;;-142.75;100.00;76251.41;5059354;28;19919;-68
2022/09/03 01:03:26;;;;;;;;;;;;;;;-142.75;100.00;76257.31;5066414;28;20345;-68
2022/09/03 01:06:02;;;;;;;;;;;;;;;-142.75;100.00;76247.47;5073597;28;20427;-69
2022/09/03 01:08:30;;;;;;;;;;;;;;;-142.75;100.00;76253.38;5074552;28;19912;-68
2022/09/03 01:10:56;;;;;;;;;;;;;;;-142.75;100.00;76257.31;5074730;28;19956;-69
2022/09/03 01:13:26;;;;;;;;;;;;;;;-142.75;100.00;76267.16;5074720;28;19920;-69
2022/09/03 01:16:06;;;;;;;;;;;;;;;-142.75;100.00;76278.97;5074699;28;19912;-69
2022/09/03 01:18:50;;;;;;;;;;;;;;;-142.75;100.00;76277.00;5072934;28;19961;-69
2022/09/03 01:21:21;;;;;;;;;;;;;;;-142.75;100.00;76286.84;5067479;28;19916;-68
2022/09/03 01:24:08;;;;;;;;;;;;;;;-142.75;100.00;76286.84;5068194;28;19947;-69
2022/09/03 01:26:48;;;;;;;;;;;;;;;-142.75;100.00;76286.84;5074250;28;19912;-67
2022/09/03 01:29:19;;;;;;;;;;;;;;;-142.75;100.00;76292.75;5074461;28;19986;-68
2022/09/03 01:32:03;;;;;;;;;;;;;;;-142.75;100.00;76294.72;5073433;28;20433;-69
2022/09/03 01:34:47;;;;;;;;;;;;;;;-142.75;100.00;76292.75;5074272;28;20007;-68
2022/09/03 01:37:27;;;;;;;;;;;;;;;-142.75;100.00;76294.72;5073868;28;20010;-69
2022/09/03 01:40:06;;;;;;;;;;;;;;;-142.75;100.00;76296.69;5074275;28;19916;-69
2022/09/03 01:42:31;;;;;;;;;;;;;;;-142.75;100.00;76298.66;5073071;28;19923;-68
2022/09/03 01:45:20;;;;;;;;;;;;;;;-142.75;100.00;76302.59;5062292;28;20000;-69
2022/09/03 01:47:52;;;;;;;;;;;;;;;-142.75;100.00;76298.66;5052459;28;19913;-68
2022/09/03 01:50:23;;;;;;;;;;;;;;;-142.75;100.00;76304.56;5054030;28;20325;-69
2022/09/03 01:53:06;;;;;;;;;;;;;;;-142.75;100.00;76310.47;5053888;28;19928;-69
2022/09/03 01:55:39;;;;;;;;;;;;;;;-142.75;100.00;76310.47;5053819;28;20383;-69
2022/09/03 01:58:10;;;;;;;;;;;;;;;-142.75;100.00;76312.44;5053603;28;19913;-67
2022/09/03 02:00:38;;;;;;;;;;;;;;;-142.75;100.00;76322.28;5053806;28;19919;-69
2022/09/03 02:03:05;;;;;;;;;;;;;;;-142.75;100.00;76314.41;5053677;28;20421;-68
2022/09/03 02:05:31;;;;;;;;;;;;;;;-142.75;100.00;76314.41;5052495;28;19919;-70
2022/09/03 02:08:00;;;;;;;;;;;;;;;-142.75;100.00;76318.34;5053395;28;19921;-68
2022/09/03 02:10:31;;;;;;;;;;;;;;;-142.75;100.00;76330.16;5053649;28;19923;-69
2022/09/03 02:13:06;;;;;;;;;;;;;;;-142.75;100.00;76330.16;5053560;28;19946;-68
2022/09/03 02:15:34;;;;;;;;;;;;;;;-142.75;100.00;76326.22;5053530;28;19913;-69
2022/09/03 02:18:01;;;;;;;;;;;;;;;-142.75;100.00;76328.19;5053153;28;19917;-70
2022/09/03 02:20:28;;;;;;;;;;;;;;;-142.75;100.00;76320.31;5053227;28;19917;-68
2022/09/03 02:22:55;;;;;;;;;;;;;;;-142.75;100.00;76326.22;5057265;23;19936;-69
2022/09/03 02:25:22;;;;;;;;;;;;;;;-142.75;100.00;76328.19;5028725;28;19963;-68
2022/09/03 02:27:48;;;;;;;;;;;;;;;-142.75;100.00;76338.03;5032946;28;19928;-68
2022/09/03 02:30:13;;;;;;;;;;;;;;;-142.75;100.00;76334.09;5030195;28;20394;-68
2022/09/03 02:32:38;;;;;;;;;;;;;;;-142.75;100.00;76336.06;5020551;28;19960;-68
2022/09/03 02:35:04;;;;;;;;;;;;;;;-142.75;100.00;76343.94;5013561;28;20011;-68
2022/09/03 02:37:29;;;;;;;;;;;;;;;-142.75;100.00;76340.00;4995599;28;19990;-68
2022/09/03 02:39:54;;;;;;;;;;;;;;;-142.75;100.00;76343.94;5013368;28;19975;-68
2022/09/03 02:42:20;;;;;;;;;;;;;;;-142.75;100.00;76349.81;5013202;28;19918;-68
2022/09/03 02:44:47;;;;;;;;;;;;;;;-142.75;100.00;76353.78;5032226;28;19913;-68
2022/09/03 02:47:13;;;;;;;;;;;;;;;-142.75;100.00;76351.81;4997827;28;20379;-68
2022/09/03 02:49:39;;;;;;;;;;;;;;;-142.75;100.00;76357.69;5013321;28;19913;-69
2022/09/03 02:52:08;;;;;;;;;;;;;;;-142.75;100.00;76369.50;4995790;28;20337;-68
2022/09/03 02:54:38;;;;;;;;;;;;;;;-142.75;100.00;76375.41;5013179;28;19913;-68
2022/09/03 02:57:03;;;;;;;;;;;;;;;-142.75;100.00;76389.19;5012902;28;19920;-68
2022/09/03 02:59:28;;;;;;;;;;;;;;;-142.75;100.00;76389.19;5013217;28;19913;-68
2022/09/03 03:01:54;;;;;;;;;;;;;;;-142.75;100.00;76387.22;5012899;28;20410;-68
2022/09/03 03:04:20;;;;;;;;;;;;;;;-142.75;100.00;76387.22;5013020;28;19914;-69
2022/09/03 03:06:45;;;;;;;;;;;;;;;-142.75;100.00;76377.38;5012661;28;19941;-68
2022/09/03 03:09:10;;;;;;;;;;;;;;;-142.75;100.00;76385.25;5012941;28;19967;-68
2022/09/03 03:11:35;;;;;;;;;;;;;;;-142.75;100.00;76389.19;5012923;28;19936;-68
2022/09/03 03:14:01;;;;;;;;;;;;;;;-142.75;100.00;76391.16;5012974;28;19913;-68
2022/09/03 03:16:26;;;;;;;;;;;;;;;-142.75;100.00;76397.06;4995155;28;19961;-68
2022/09/03 03:18:51;;;;;;;;;;;;;;;-142.75;100.00;76412.81;5012771;28;19913;-68
2022/09/03 03:21:17;;;;;;;;;;;;;;;-142.75;100.00;76422.66;5012628;28;20448;-68
2022/09/03 03:23:43;;;;;;;;;;;;;;;-142.75;100.00;76412.81;5012678;28;19917;-69
2022/09/03 03:26:10;;;;;;;;;;;;;;;-142.75;100.00;76420.69;5026515;28;20440;-68
2022/09/03 03:28:35;;;;;;;;;;;;;;;-142.75;100.00;76424.63;5019989;28;19913;-68
2022/09/03 03:31:08;;;;;;;;;;;;;;;-142.75;100.00;76420.69;5012637;28;19985;-68
2022/09/03 03:33:33;;;;;;;;;;;;;;;-142.75;100.00;76426.59;5012615;28;19920;-69
2022/09/03 03:36:02;;;;;;;;;;;;;;;-142.75;100.00;76424.63;5012502;28;19913;-68
2022/09/03 03:38:27;;;;;;;;;;;;;;;-142.75;100.00;76428.56;5012378;28;19914;-69
2022/09/03 03:40:52;;;;;;;;;;;;;;;-142.75;100.00;76436.44;5012565;28;20284;-68
2022/09/03 03:43:18;;;;;;;;;;;;;;;-142.75;100.00;76440.38;5012544;28;20106;-68
2022/09/03 03:45:43;;;;;;;;;;;;;;;-142.75;100.00;76448.25;5012542;28;19971;-68
2022/09/03 03:48:08;;;;;;;;;;;;;;;-142.75;100.00;76456.13;5012119;28;19914;-68
2022/09/03 03:50:33;;;;;;;;;;;;;;;-142.75;100.00;76452.19;5012431;28;19957;-68
2022/09/03 03:52:59;;;;;;;;;;;;;;;-142.75;100.00;76458.09;5012519;28;19982;-68
2022/09/03 03:55:24;;;;;;;;;;;;;;;-142.75;100.00;76464.00;5014007;28;19958;-68
2022/09/03 03:57:49;;;;;;;;;;;;;;;-142.75;100.00;76456.13;5016284;28;20438;-68
2022/09/03 04:00:15;;;;;;;;;;;;;;;-142.75;100.00;76460.06;5016453;28;19913;-68
2022/09/03 04:02:40;;;;;;;;;;;;;;;-142.75;100.00;76456.13;5016348;28;19918;-68
2022/09/03 04:05:05;;;;;;;;;;;;;;;-142.75;100.00;76469.91;5016400;28;19918;-68
2022/09/03 04:07:31;;;;;;;;;;;;;;;-142.75;100.00;76469.91;4998581;28;19957;-68
2022/09/03 04:09:56;;;;;;;;;;;;;;;-142.75;100.00;76475.81;5016357;28;19921;-68
2022/09/03 04:12:21;;;;;;;;;;;;;;;-142.75;100.00;76465.97;5016247;28;19967;-69
2022/09/03 04:14:46;;;;;;;;;;;;;;;-142.75;100.00;76469.91;5016166;28;19992;-68
2022/09/03 04:17:11;;;;;;;;;;;;;;;-142.75;100.00;76471.88;5015897;28;19914;-68
2022/09/03 04:19:37;;;;;;;;;;;;;;;-142.75;100.00;76467.94;5016232;28;19914;-68
2022/09/03 04:22:04;;;;;;;;;;;;;;;-142.75;100.00;76469.91;5015079;28;20366;-68
2022/09/03 04:24:29;;;;;;;;;;;;;;;-142.75;100.00;76464.00;5016048;28;20008;-68
2022/09/03 04:26:54;;;;;;;;;;;;;;;-142.75;100.00;76467.94;5015812;28;19914;-68
2022/09/03 04:29:20;;;;;;;;;;;;;;;-142.75;100.00;76475.81;5015961;28;19959;-68
2022/09/03 04:34:30;;;;;;;;;;;;;;;-142.75;100.00;76481.72;5016112;28;19920;-68
2022/09/03 04:36:57;;;;;;;;;;;;;;;-142.75;100.00;76493.53;5015524;28;19917;-68
2022/09/03 04:39:22;;;;;;;;;;;;;;;-142.75;100.00;76487.63;5015804;28;19920;-68
2022/09/03 04:41:47;;;;;;;;;;;;;;;-142.75;100.00;76495.50;5015698;28;20291;-68
2022/09/03 04:44:12;;;;;;;;;;;;;;;-142.75;100.00;76499.44;5015532;28;20383;-68
2022/09/03 04:46:39;;;;;;;;;;;;;;;-142.75;100.00;76509.28;5015342;28;19924;-68
2022/09/03 04:49:06;;;;;;;;;;;;;;;-142.75;100.00;76505.34;5015497;28;19918;-68
2022/09/03 04:51:31;;;;;;;;;;;;;;;-142.75;100.00;76507.31;5015465;28;20008;-68
2022/09/03 04:53:58;;;;;;;;;;;;;;;-142.75;100.00;76517.16;5015596;28;20350;-68
2022/09/03 04:56:25;;;;;;;;;;;;;;;-142.75;100.00;76509.28;5015395;28;20111;-68
2022/09/03 04:58:55;;;;;;;;;;;;;;;-142.75;100.00;76505.34;4997493;28;19944;-68
2022/09/03 05:01:21;;;;;;;;;;;;;;;-142.75;100.00;76501.41;5015191;28;19920;-68
2022/09/03 05:03:46;;;;;;;;;;;;;;;-142.75;100.00;76509.28;5015075;28;19913;-68
2022/09/03 05:06:12;;;;;;;;;;;;;;;-142.75;100.00;76509.28;5014426;28;19924;-68
2022/09/03 05:08:37;;;;;;;;;;;;;;;-142.75;100.00;76513.22;5014680;28;19921;-68
2022/09/03 05:11:03;;;;;;;;;;;;;;;-142.75;100.00;76527.00;5015048;28;19920;-68
2022/09/03 05:13:29;;;;;;;;;;;;;;;-142.75;100.00;76523.06;4997435;28;19995;-68
2022/09/03 05:15:58;;;;;;;;;;;;;;;-142.75;100.00;76523.06;5015019;28;19991;-68
2022/09/03 05:18:23;;;;;;;;;;;;;;;-142.75;100.00;76517.16;5014736;28;19919;-68
2022/09/03 05:20:56;;;;;;;;;;;;;;;-142.75;100.00;76530.91;5015086;28;19913;-68
2022/09/03 05:23:21;;;;;;;;;;;;;;;-142.75;100.00;76517.16;4997333;28;19940;-68
2022/09/03 05:25:55;;;;;;;;;;;;;;;-142.75;100.00;76513.22;5015013;28;19917;-68
2022/09/03 05:28:20;;;;;;;;;;;;;;;-142.75;100.00;76515.19;5014524;28;20295;-68
2022/09/03 05:30:45;;;;;;;;;;;;;;;-142.75;100.00;76503.38;5014833;28;19913;-68
2022/09/03 05:33:10;;;;;;;;;;;;;;;-142.75;100.00;76501.41;5014724;28;19913;-68
2022/09/03 05:35:35;;;;;;;;;;;;;;;-142.75;100.00;76493.53;5015212;28;19914;-68
2022/09/03 05:38:01;;;;;;;;;;;;;;;-142.75;100.00;76493.53;5014546;28;19913;-68
2022/09/03 05:40:26;;;;;;;;;;;;;;;-142.75;100.00;76475.81;5014575;28;19913;-68
2022/09/03 05:42:57;;;;;;;;;;;;;;;-142.75;100.00;76465.97;5014535;28;20008;-68
2022/09/03 05:45:22;;;;;;;;;;;;;;;-142.75;100.00;76456.13;5015199;28;20294;-68
2022/09/03 05:47:47;;;;;;;;;;;;;;;-142.75;100.00;76452.19;5024374;28;20059;-68
2022/09/03 05:50:12;;;;;;;;;;;;;;;-142.75;100.00;76444.31;5033861;28;19917;-68
2022/09/03 05:52:38;;;;;;;;;;;;;;;-142.75;100.00;76438.41;5032388;28;19913;-68
2022/09/03 05:55:03;;;;;;;;;;;;;;;-142.75;100.00;76440.38;5021193;28;19953;-68
2022/09/03 05:57:29;;;;;;;;;;;;;;;-142.75;100.00;76426.59;5032817;28;20302;-68
2022/09/03 05:59:54;;;;;;;;;;;;;;;-142.75;100.00;76418.72;5033830;28;19917;-68
2022/09/03 06:02:20;;;;;;;;;;;;;;;-142.75;100.00;76414.78;5033741;28;20256;-68
2022/09/03 06:04:45;;;;;;;;;;;;;;;-142.75;100.00;76402.97;5033977;28;20008;-68
2022/09/03 06:07:11;;;;;;;;;;;;;;;-142.75;100.00;76399.03;5015748;28;19920;-67
2022/09/03 06:09:36;;;;;;;;;;;;;;;-142.75;100.00;76387.22;5033855;28;19913;-68
2022/09/03 06:12:02;;;;;;;;;;;;;;;-142.75;100.00;76371.47;5033762;28;19920;-68
2022/09/03 06:14:27;;;;;;;;;;;;;;;-142.75;100.00;76373.44;5022723;28;19914;-68
2022/09/03 06:16:53;;;;;;;;;;;;;;;-142.75;100.00;76365.56;5013556;28;20049;-68
2022/09/03 06:19:19;;;;;;;;;;;;;;;-142.75;100.00;76345.91;5013477;28;19913;-68
2022/09/03 06:21:45;;;;;;;;;;;;;;;-142.75;100.00;76326.22;5013687;28;20600;-68
2022/09/03 06:24:23;;;;;;;;;;;;;;;-142.75;100.00;76308.50;5013682;28;19913;-67
2022/09/03 06:26:48;;;;;;;;;;;;;;;-142.75;100.00;76292.75;5013318;28;20345;-68
2022/09/03 06:29:14;;;;;;;;;;;;;;;-142.75;100.00;76273.06;5013708;28;20004;-67
2022/09/03 06:31:39;;;;;;;;;;;;;;;-142.75;100.00;76253.38;5013591;28;19913;-68
2022/09/03 06:34:04;;;;;;;;;;;;;;;-142.75;100.00;76243.53;5013561;28;20005;-67
2022/09/03 06:36:30;;;;;;;;;;;;;;;-142.75;100.00;76221.88;5013496;28;19913;-68
2022/09/03 06:38:56;;;;;;;;;;;;;;;-142.75;100.00;76212.03;4996140;28;19921;-67
2022/09/03 06:41:23;;;;;;;;;;;;;;;-142.75;100.00;76196.31;5013383;28;19913;-67
2022/09/03 06:43:49;;;;;;;;;;;;;;;-142.75;100.00;76188.44;5013398;28;19919;-68
2022/09/03 06:46:17;;;;;;;;;;;;;;;-142.75;100.00;76164.81;5013647;28;19979;-67
2022/09/03 06:48:42;;;;;;;;;;;;;;;-142.75;100.00;76149.06;5013545;28;19914;-68
2022/09/03 06:51:09;;;;;;;;;;;;;;;-142.75;100.00;76129.38;5013445;28;19920;-67
2022/09/03 06:53:35;;;;;;;;;;;;;;;-142.75;100.00;76109.69;5013346;28;19917;-67
2022/09/03 06:56:03;;;;;;;;;;;;;;;-142.75;100.00;76127.41;5013061;28;19914;-67
2022/09/03 06:58:29;;;;;;;;;;;;;;;-142.75;100.00;76101.81;5012988;28;20337;-67
2022/09/03 07:01:00;;;;;;;;;;;;;;;-142.75;100.00;76093.94;5019527;28;20011;-67
2022/09/03 07:03:25;;;;;;;;;;;;;;;-142.75;100.00;76080.16;5032948;28;19991;-68
2022/09/03 07:05:50;;;;;;;;;;;;;;;-142.75;100.00;76072.31;5032945;28;20383;-67
2022/09/03 07:08:15;;;;;;;;;;;;;;;-142.75;100.00;76050.66;5032659;28;19939;-68
2022/09/03 07:10:45;;;;;;;;;;;;;;;-142.75;100.00;76030.97;5032658;28;19996;-68
2022/09/03 07:13:10;;;;;;;;;;;;;;;-142.75;100.00;76017.19;5032601;28;19914;-68
2022/09/03 07:15:36;;;;;;;;;;;;;;;-142.75;100.00;75995.53;5032788;28;19943;-68
2022/09/03 07:18:01;;;;;;;;;;;;;;;-142.75;97.08;75983.72;5032363;28;19921;-67
2022/09/03 07:20:26;;;;;;;;;;;;;;;-142.75;100.00;75971.91;5032627;28;19913;-68
2022/09/03 07:22:53;;;;;;;;;;;;;;;-142.75;98.64;75956.19;5032464;28;19917;-68
2022/09/03 07:25:18;;;;;;;;;;;;;;;-142.75;93.87;75954.22;5032373;28;19918;-68
2022/09/03 07:27:44;;;;;;;;;;;;;;;-142.75;92.17;75971.91;5032280;28;19917;-68
2022/09/03 07:30:09;;;;;;;;;;;;;;;-142.75;97.28;75942.41;5031218;28;19924;-68
2022/09/03 07:32:36;;;;;;;;;;;;;;;-142.75;95.45;75924.69;5033043;28;19913;-68
2022/09/03 07:35:01;;;;;;;;;;;;;;;-142.75;93.27;75903.03;5032403;28;19944;-68
2022/09/03 07:37:26;;;;;;;;;;;;;;;-142.75;90.82;75883.34;5032044;28;19948;-68
2022/09/03 07:39:52;;;;;;;;;;;;;;;-142.75;91.92;75818.41;5032313;28;20003;-68
2022/09/03 07:42:17;;;;;;;;;;;;;;;-142.75;86.71;75806.59;5031876;28;20293;-67
2022/09/03 07:44:43;;;;;;;;;;;;;;;-142.75;87.45;75781.00;5032117;28;19917;-68
2022/09/03 07:47:08;;;;;;;;;;;;;;;-142.75;83.81;75767.22;5026607;28;19917;-68
2022/09/03 07:49:34;;;;;;;;;;;;;;;-142.75;84.87;75747.56;5031320;28;19917;-68
2022/09/03 07:51:59;;;;;;;;;;;;;;;-142.75;85.36;75735.75;5026598;28;19918;-68
2022/09/03 07:54:26;;;;;;;;;;;;;;;-142.75;82.14;75743.63;5031292;28;19920;-68
2022/09/03 07:56:51;;;;;;;;;;;;;;;-142.75;82.41;75753.47;5031113;28;19913;-67
2022/09/03 07:59:16;;;;;;;;;;;;;;;-142.75;82.88;75729.84;5031423;28;20421;-67
2022/09/03 08:01:42;;;;;;;;;;;;;;;-142.75;82.79;75718.03;5031224;28;19924;-68
2022/09/03 08:04:08;;;;;;;;;;;;;;;-142.75;86.01;75674.72;5031274;28;19920;-67
2022/09/03 08:06:33;;;;;;;;;;;;;;;-142.75;80.28;75694.41;5025561;28;20012;-68
2022/09/03 08:09:00;;;;;;;;;;;;;;;-142.75;79.16;75706.22;5017176;28;19913;-67
2022/09/03 08:11:25;;;;;;;;;;;;;;;-142.75;83.51;75680.63;5019923;28;19913;-67
2022/09/03 08:13:54;;;;;;;;;;;;;;;-142.75;78.72;75676.69;5017965;28;19914;-67
2022/09/03 08:16:19;;;;;;;;;;;;;;;-142.75;78.88;75647.19;5021809;28;19919;-68
2022/09/03 08:18:46;;;;;;;;;;;;;;;-142.75;75.19;75655.06;5017449;28;20008;-67
2022/09/03 08:21:14;;;;;;;;;;;;;;;-142.75;74.63;75672.78;5018930;28;19913;-67
2022/09/03 08:23:41;;;;;;;;;;;;;;;-142.75;76.26;75708.19;5071301;22;19924;-68
2022/09/03 08:26:06;;;;;;;;;;;;;;;-142.75;76.92;75690.47;5057839;28;20302;-67
2022/09/03 08:28:33;;;;;;;;;;;;;;;-142.75;74.20;75696.38;5063773;28;19912;-68
2022/09/03 08:31:03;;;;;;;;;;;;;;;-142.75;74.82;75674.72;5069717;28;20271;-68
2022/09/03 08:33:37;;;;;;;;;;;;;;;-142.75;74.61;75668.84;5063942;28;19920;-68
2022/09/03 08:36:06;;;;;;;;;;;;;;;-142.75;73.98;75666.88;5058683;28;19912;-68
2022/09/03 08:38:32;;;;;;;;;;;;;;;-142.75;73.62;75662.94;5058406;28;19999;-68
2022/09/03 08:41:14;;;;;;;;;;;;;;;-142.75;75.32;75651.13;5056226;28;19978;-68
2022/09/03 08:43:55;;;;;;;;;;;;;;;-142.75;72.42;75664.91;5060956;28;19921;-71
2022/09/03 08:46:22;;;;;;;;;;;;;;;-142.75;75.74;75645.22;5055047;28;20322;-70
2022/09/03 08:48:48;;;;;;;;;;;;;;;-142.75;72.92;75621.59;5055357;28;19913;-70
2022/09/03 08:51:16;;;;;;;;;;;;;;;-142.75;75.94;75582.25;5058813;28;19917;-70
2022/09/03 08:53:47;;;;;;;;;;;;;;;-142.75;71.70;75580.28;5054916;28;19913;-72
2022/09/03 08:56:32;;;;;;;;;;;;;;;-142.75;70.99;75564.53;5055312;28;19917;-68
2022/09/03 08:58:59;;;;;;;;;;;;;;;-142.75;70.66;75582.25;5043406;28;19923;-69
2022/09/03 09:01:42;;;;;;;;;;;;;;;-142.75;71.78;75596.00;5055436;28;19989;-71
2022/09/03 09:04:07;;;;;;;;;;;;;;;-142.75;72.88;75586.19;5070425;28;19952;-70
2022/09/03 09:06:44;;;;;;;;;;;;;;;-142.75;72.08;75554.69;5065713;28;19948;-69
2022/09/03 09:09:24;;;;;;;;;;;;;;;-142.75;71.84;75515.31;5064598;28;20007;-69
2022/09/03 09:11:52;;;;;;;;;;;;;;;-142.75;70.23;75470.06;5054663;28;19913;-70
2022/09/03 09:14:36;;;;;;;;;;;;;;;-142.75;69.87;75462.19;5054567;28;19955;-71
2022/09/03 09:17:12;;;;;;;;;;;;;;;-142.75;68.87;75420.88;5054584;28;20015;-69
2022/09/03 09:20:01;;;;;;;;;;;;;;;-142.75;69.04;75399.22;5054753;28;19956;-72
2022/09/03 09:22:47;;;;;;;;;;;;;;;-142.75;67.70;75393.31;5054292;28;19928;-70
2022/09/03 09:25:16;;;;;;;;;;;;;;;-142.75;68.38;75385.44;5062114;28;19964;-70
2022/09/03 09:27:46;;;;;;;;;;;;;;;-142.75;69.27;75371.66;5058617;28;20401;-70
2022/09/03 09:30:13;;;;;;;;;;;;;;;-142.75;69.53;75336.25;5062953;28;19962;-68
2022/09/03 09:32:38;;;;;;;;;;;;;;;-142.75;67.90;75302.78;5072189;28;20011;-65
2022/09/03 09:35:07;;;;;;;;;;;;;;;-142.75;65.81;75296.88;5054262;28;19951;-69
2022/09/03 09:37:32;;;;;;;;;;;;;;;-142.75;66.38;75267.38;5054243;28;19920;-69
2022/09/03 09:39:58;;;;;;;;;;;;;;;-142.75;67.15;75222.13;5054837;28;20464;-69
2022/09/03 09:42:24;;;;;;;;;;;;;;;-142.75;63.69;75188.66;5054357;28;19984;-69
2022/09/03 09:44:50;;;;;;;;;;;;;;;-142.75;63.98;75180.78;5054203;28;20007;-69
2022/09/03 09:47:21;;;;;;;;;;;;;;;-142.75;65.02;75141.44;5053884;28;19982;-70
2022/09/03 09:50:09;;;;;;;;;;;;;;;-142.75;62.31;75137.50;5054184;28;19959;-69
2022/09/03 09:52:34;;;;;;;;;;;;;;;-142.75;63.64;75109.94;5052945;28;19912;-69
2022/09/03 09:55:26;;;;;;;;;;;;;;;-142.75;64.40;75094.22;5054076;28;19913;-71
2022/09/03 09:58:03;;;;;;;;;;;;;;;-142.75;62.16;75058.78;5051802;28;20402;-69
2022/09/03 10:00:30;;;;;;;;;;;;;;;-142.75;62.53;75054.84;5053821;28;19920;-68
2022/09/03 10:02:56;;;;;;;;;;;;;;;-142.75;60.27;75039.13;5053971;28;20429;-69
2022/09/03 10:05:23;;;;;;;;;;;;;;;-142.75;60.25;75046.97;5054228;28;20009;-70
2022/09/03 10:07:57;;;;;;;;;;;;;;;-142.75;61.26;75033.22;5052298;28;19956;-69
2022/09/03 10:10:24;;;;;;;;;;;;;;;-142.75;59.02;75052.88;5053850;28;19917;-71
2022/09/03 10:12:49;;;;;;;;;;;;;;;-142.75;62.08;75058.78;5053859;28;19917;-69
2022/09/03 10:15:16;;;;;;;;;;;;;;;-142.75;60.52;75058.78;5053804;28;19920;-70
2022/09/03 10:18:04;;;;;;;;;;;;;;;-142.75;63.17;75043.03;5053703;28;19919;-69
2022/09/03 10:20:43;;;;;;;;;;;;;;;-142.75;60.88;75007.63;5048160;28;20301;-69
2022/09/03 10:23:13;;;;;;;;;;;;;;;-142.75;61.34;75031.25;5058658;28;19963;-69
2022/09/03 10:25:42;;;;;;;;;;;;;;;-142.75;61.32;75052.88;5073722;28;20057;-69
2022/09/03 10:28:09;;;;;;;;;;;;;;;-142.75;61.30;75019.44;5073184;28;19918;-69
2022/09/03 10:30:53;;;;;;;;;;;;;;;-142.75;61.64;74980.06;5073428;28;20340;-66
2022/09/03 10:33:25;;;;;;;;;;;;;;;-142.75;59.81;74956.47;5072049;28;19913;-69
2022/09/03 10:35:52;;;;;;;;;;;;;;;-142.75;59.32;74950.56;5073367;28;19951;-69
2022/09/03 10:38:35;;;;;;;;;;;;;;;-142.75;60.31;74948.59;5072965;28;19952;-68
2022/09/03 10:41:06;;;;;;;;;;;;;;;-142.75;57.07;74865.97;5073240;28;19913;-69
2022/09/03 10:43:44;;;;;;;;;;;;;;;-142.75;56.18;74850.22;5073445;28;19920;-69
2022/09/03 10:46:09;;;;;;;;;;;;;;;-142.75;53.29;74895.47;5073058;28;19912;-69
2022/09/03 10:48:36;;;;;;;;;;;;;;;-142.75;56.17;74897.44;5072742;28;19916;-71
2022/09/03 10:51:06;;;;;;;;;;;;;;;-142.75;57.67;74889.56;5071622;28;19973;-70
2022/09/03 10:53:31;;;;;;;;;;;;;;;-142.75;55.99;74867.91;5072971;28;20329;-70
2022/09/03 10:56:02;;;;;;;;;;;;;;;-142.75;56.13;74875.78;5072847;28;19958;-69
2022/09/03 10:58:37;;;;;;;;;;;;;;;-142.75;54.13;74879.72;5072380;28;20386;-69
2022/09/03 11:01:14;;;;;;;;;;;;;;;-142.75;55.47;74875.78;5072722;28;19912;-70
2022/09/03 11:03:41;;;;;;;;;;;;;;;-142.75;55.40;74842.34;5071313;28;20010;-67
2022/09/03 11:06:10;;;;;;;;;;;;;;;-142.75;59.83;74814.78;5072615;28;19944;-69
2022/09/03 11:08:51;;;;;;;;;;;;;;;-142.75;57.93;74775.44;5072371;28;19917;-70
2022/09/03 11:11:31;;;;;;;;;;;;;;;-142.75;56.99;74793.16;5072480;28;19912;-69
2022/09/03 11:14:07;;;;;;;;;;;;;;;-142.75;55.56;74751.84;5072493;28;19958;-70
2022/09/03 11:16:36;;;;;;;;;;;;;;;-142.75;51.95;74757.75;5072359;28;19920;-68
2022/09/03 11:19:02;;;;;;;;;;;;;;;-142.75;53.85;74797.09;5072479;28;19913;-69
2022/09/03 11:21:29;;;;;;;;;;;;;;;-142.75;52.25;74810.88;5072332;28;19919;-70
2022/09/03 11:24:00;;;;;;;;;;;;;;;-142.75;52.61;74824.63;5072246;28;19920;-69
2022/09/03 11:26:26;;;;;;;;;;;;;;;-142.75;52.28;74867.91;5072316;28;19916;-71
2022/09/03 11:28:51;;;;;;;;;;;;;;;-142.75;53.50;74865.97;5072231;28;20003;-70
2022/09/03 11:31:30;;;;;;;;;;;;;;;-142.75;54.47;74824.63;5071287;28;20003;-68
2022/09/03 11:34:00;;;;;;;;;;;;;;;-142.75;55.53;74840.38;5072225;28;19916;-68
2022/09/03 11:36:36;;;;;;;;;;;;;;;-142.75;53.54;74846.28;5072255;28;19912;-70
2022/09/03 11:39:22;;;;;;;;;;;;;;;-142.75;52.47;74842.34;5072457;28;19919;-70
2022/09/03 11:41:58;;;;;;;;;;;;;;;-142.75;51.46;74836.44;5072226;28;20352;-70
2022/09/03 11:44:23;;;;;;;;;;;;;;;-142.75;52.95;74871.84;5071964;28;20009;-69
2022/09/03 11:46:55;;;;;;;;;;;;;;;-142.75;53.22;74826.59;5071944;28;19982;-69
2022/09/03 11:49:26;;;;;;;;;;;;;;;-142.75;52.56;74814.78;5071260;28;19919;-69
2022/09/03 11:51:59;;;;;;;;;;;;;;;-142.75;52.01;74763.63;5070803;28;20369;-69
2022/09/03 11:54:25;;;;;;;;;;;;;;;-142.75;49.63;74773.47;5071912;28;19965;-69
2022/09/03 11:57:04;;;;;;;;;;;;;;;-142.75;52.87;74759.72;5071470;28;19913;-70
2022/09/03 11:59:30;;;;;;;;;;;;;;;-142.75;53.09;74728.22;5072043;28;19913;-69
2022/09/03 12:02:08;;;;;;;;;;;;;;;-142.75;49.80;74708.53;5071910;28;19920;-69
2022/09/03 12:04:44;;;;;;;;;;;;;;;-142.75;48.90;74743.97;5072041;28;20020;-69
2022/09/03 12:07:28;;;;;;;;;;;;;;;-142.75;48.63;74720.34;5071786;28;19913;-70
2022/09/03 12:09:54;;;;;;;;;;;;;;;-142.75;49.77;74688.88;5071899;28;20390;-69
2022/09/03 12:12:31;;;;;;;;;;;;;;;-142.75;48.64;74653.47;5071814;28;19913;-69
2022/09/03 12:15:06;;;;;;;;;;;;;;;-142.75;47.49;74688.88;5071823;28;19916;-70
2022/09/03 12:17:48;;;;;;;;;;;;;;;-142.75;48.41;74716.41;5075118;28;20396;-70
2022/09/03 12:20:16;;;;;;;;;;;;;;;-142.75;48.81;74708.53;5075851;28;19912;-70
2022/09/03 12:22:41;;;;;;;;;;;;;;;-142.75;51.00;74775.44;5075836;28;20302;-71
2022/09/03 12:25:13;;;;;;;;;;;;;;;-142.75;49.75;74785.28;5075746;28;19912;-70
2022/09/03 12:27:40;;;;;;;;;;;;;;;-142.75;52.43;74763.63;5075453;28;20014;-69
2022/09/03 12:30:14;;;;;;;;;;;;;;;-142.75;54.48;74761.66;5075593;28;19947;-71
2022/09/03 12:32:40;;;;;;;;;;;;;;;-142.75;54.59;74749.88;5075543;28;19913;-70